SAS1832 LDSP-ESSA
Flight info
| Callsign | SAS1832 |
|---|---|
| Flight time | N/A |
| Altitude | 37000 |
| Route | UNIPA DCT KOPRY DCT XENAK/N0433F360 DCT DESEN DCT BEZMI DCT PENOR/N0433F370 DCT VSB/N0443F380 DCT ROGMI/N0438F370 Z229 NILUG |
| Aircraft | A320/M-SDE3FGHIRWY/LB1 |
Departure
| Time | N/A |
|---|---|
| Airport | Split Saint Jerome Airport (LDSP) |
Arrival
| Time | 2026-05-06 07:39 |
|---|---|
| Airport | Stockholm-Arlanda Airport (ESSA) |
| Time | Latitude | Longitude | Altitude | Speed | Heading |
|---|---|---|---|---|---|
| 2026-05-06 07:10 | 57.25060 | 18.09617 | 37004 ft | 479 kts | 12° |
| 2026-05-06 07:10 | 57.28267 | 18.11558 | 37011 ft | 479 kts | 12° |
| 2026-05-06 07:11 | 57.34616 | 18.15409 | 36741 ft | 481 kts | 12° |
| 2026-05-06 07:11 | 57.37751 | 18.17317 | 36479 ft | 481 kts | 12° |
| 2026-05-06 07:11 | 57.40942 | 18.19264 | 36228 ft | 482 kts | 12° |
| 2026-05-06 07:11 | 57.44175 | 18.21247 | 36080 ft | 480 kts | 12° |
| 2026-05-06 07:12 | 57.47309 | 18.23174 | 36194 ft | 483 kts | 12° |
| 2026-05-06 07:12 | 57.53738 | 18.27136 | 36185 ft | 484 kts | 12° |
| 2026-05-06 07:12 | 57.56941 | 18.29108 | 35863 ft | 485 kts | 12° |
| 2026-05-06 07:13 | 57.60180 | 18.31047 | 34957 ft | 489 kts | 7° |
| 2026-05-06 07:13 | 57.63443 | 18.32259 | 34515 ft | 468 kts | 357° |
| 2026-05-06 07:13 | 57.66613 | 18.32536 | 33989 ft | 444 kts | 347° |
| 2026-05-06 07:13 | 57.69592 | 18.31952 | 33528 ft | 418 kts | 338° |
| 2026-05-06 07:14 | 57.72325 | 18.30686 | 33116 ft | 392 kts | 328° |
| 2026-05-06 07:14 | 57.74859 | 18.29070 | 32702 ft | 380 kts | 328° |
| 2026-05-06 07:14 | 57.77373 | 18.27449 | 32312 ft | 383 kts | 328° |
| 2026-05-06 07:14 | 57.79888 | 18.25821 | 31903 ft | 382 kts | 328° |
| 2026-05-06 07:15 | 57.82390 | 18.24207 | 31512 ft | 380 kts | 328° |
| 2026-05-06 07:15 | 57.84886 | 18.22600 | 31124 ft | 379 kts | 328° |
| 2026-05-06 07:15 | 57.87374 | 18.20996 | 30734 ft | 378 kts | 328° |
| 2026-05-06 07:15 | 57.89857 | 18.19393 | 30355 ft | 377 kts | 328° |
| 2026-05-06 07:16 | 57.92334 | 18.17794 | 29942 ft | 376 kts | 328° |
| 2026-05-06 07:16 | 57.94807 | 18.16198 | 29543 ft | 374 kts | 328° |
| 2026-05-06 07:16 | 57.97260 | 18.14615 | 29168 ft | 372 kts | 328° |
| 2026-05-06 07:16 | 57.99704 | 18.13037 | 28809 ft | 369 kts | 328° |
| 2026-05-06 07:17 | 58.02121 | 18.11472 | 28446 ft | 366 kts | 328° |
| 2026-05-06 07:17 | 58.04555 | 18.09886 | 28087 ft | 364 kts | 328° |
| 2026-05-06 07:17 | 58.06925 | 18.08337 | 27738 ft | 361 kts | 328° |
| 2026-05-06 07:17 | 58.09301 | 18.06793 | 27388 ft | 359 kts | 328° |
| 2026-05-06 07:18 | 58.11692 | 18.05228 | 27054 ft | 368 kts | 328° |
| 2026-05-06 07:18 | 58.14125 | 18.03610 | 26737 ft | 371 kts | 329° |
| 2026-05-06 07:18 | 58.16558 | 18.02009 | 26505 ft | 368 kts | 329° |
| 2026-05-06 07:18 | 58.19029 | 18.00520 | 26145 ft | 371 kts | 335° |
| 2026-05-06 07:19 | 58.21583 | 17.99749 | 25757 ft | 380 kts | 343° |
| 2026-05-06 07:19 | 58.24248 | 17.99272 | 25344 ft | 379 kts | 343° |
| 2026-05-06 07:19 | 58.26872 | 17.98799 | 24941 ft | 377 kts | 343° |
| 2026-05-06 07:19 | 58.29481 | 17.98321 | 24511 ft | 377 kts | 343° |
| 2026-05-06 07:20 | 58.32083 | 17.97837 | 24084 ft | 376 kts | 343° |
| 2026-05-06 07:20 | 58.34686 | 17.97349 | 23665 ft | 376 kts | 344° |
| 2026-05-06 07:20 | 58.37293 | 17.96861 | 23139 ft | 376 kts | 344° |
| 2026-05-06 07:20 | 58.39896 | 17.96379 | 22680 ft | 374 kts | 345° |
| 2026-05-06 07:21 | 58.42475 | 17.95900 | 22230 ft | 371 kts | 345° |
| 2026-05-06 07:21 | 58.45032 | 17.95420 | 21778 ft | 368 kts | 345° |
| 2026-05-06 07:21 | 58.47572 | 17.94942 | 21325 ft | 366 kts | 345° |
| 2026-05-06 07:21 | 58.50100 | 17.94467 | 20871 ft | 364 kts | 345° |
| 2026-05-06 07:22 | 58.52614 | 17.93990 | 20414 ft | 362 kts | 345° |
| 2026-05-06 07:22 | 58.54269 | 17.93676 | 20115 ft | 360 kts | 346° |
| 2026-05-06 07:22 | 58.56760 | 17.93204 | 19659 ft | 359 kts | 346° |
| 2026-05-06 07:22 | 58.59239 | 17.92734 | 19211 ft | 357 kts | 346° |
| 2026-05-06 07:23 | 58.61740 | 17.92261 | 18744 ft | 356 kts | 346° |
| 2026-05-06 07:23 | 58.64203 | 17.91796 | 18322 ft | 354 kts | 346° |
| 2026-05-06 07:23 | 58.66635 | 17.91337 | 17784 ft | 346 kts | 346° |
| 2026-05-06 07:23 | 58.68980 | 17.90909 | 17357 ft | 331 kts | 346° |
| 2026-05-06 07:24 | 58.71219 | 17.90502 | 16943 ft | 317 kts | 346° |
| 2026-05-06 07:24 | 58.73379 | 17.90103 | 16556 ft | 309 kts | 346° |
| 2026-05-06 07:24 | 58.75522 | 17.89686 | 16141 ft | 309 kts | 346° |
| 2026-05-06 07:24 | 58.77661 | 17.89261 | 15740 ft | 309 kts | 346° |
| 2026-05-06 07:25 | 58.79805 | 17.88919 | 15337 ft | 315 kts | 354° |
| 2026-05-06 07:25 | 58.82013 | 17.89608 | 15046 ft | 326 kts | 7° |
| 2026-05-06 07:25 | 58.84227 | 17.90674 | 15021 ft | 328 kts | 7° |
| 2026-05-06 07:25 | 58.86447 | 17.91769 | 15028 ft | 329 kts | 7° |
| 2026-05-06 07:26 | 58.88665 | 17.92868 | 15028 ft | 329 kts | 7° |
| 2026-05-06 07:26 | 58.90892 | 17.93971 | 14773 ft | 332 kts | 8° |
| 2026-05-06 07:26 | 58.93137 | 17.95072 | 14306 ft | 334 kts | 8° |
| 2026-05-06 07:26 | 58.95324 | 17.96804 | 13989 ft | 338 kts | 26° |
| 2026-05-06 07:27 | 58.97284 | 17.99250 | 13740 ft | 333 kts | 28° |
| 2026-05-06 07:27 | 58.99195 | 18.01676 | 13455 ft | 326 kts | 28° |
| 2026-05-06 07:27 | 59.01098 | 18.04101 | 13181 ft | 326 kts | 28° |
| 2026-05-06 07:27 | 59.02988 | 18.06513 | 12903 ft | 324 kts | 28° |
| 2026-05-06 07:28 | 59.04867 | 18.08921 | 12625 ft | 322 kts | 28° |
| 2026-05-06 07:28 | 59.06756 | 18.11343 | 12362 ft | 320 kts | 29° |
| 2026-05-06 07:28 | 59.10697 | 18.14957 | 11837 ft | 308 kts | 9° |
| 2026-05-06 07:29 | 59.12786 | 18.15584 | 11576 ft | 301 kts | 358° |
| 2026-05-06 07:29 | 59.14867 | 18.15807 | 11316 ft | 299 kts | 358° |
| 2026-05-06 07:29 | 59.16942 | 18.16039 | 11059 ft | 298 kts | 359° |
| 2026-05-06 07:29 | 59.19035 | 18.16282 | 10814 ft | 297 kts | 359° |
| 2026-05-06 07:30 | 59.21090 | 18.16523 | 10557 ft | 295 kts | 360° |
| 2026-05-06 07:30 | 59.23137 | 18.16767 | 10300 ft | 294 kts | 360° |
| 2026-05-06 07:30 | 59.25168 | 18.17015 | 10075 ft | 292 kts | 0° |
| 2026-05-06 07:30 | 59.27241 | 18.17263 | 9273 ft | 303 kts | 0° |
| 2026-05-06 07:31 | 59.29371 | 18.17514 | 8445 ft | 301 kts | 1° |
| 2026-05-06 07:31 | 59.31442 | 18.17438 | 7655 ft | 296 kts | 347° |
| 2026-05-06 07:31 | 59.33335 | 18.16037 | 6878 ft | 290 kts | 326° |
| 2026-05-06 07:31 | 59.34804 | 18.13412 | 6105 ft | 285 kts | 306° |
| 2026-05-06 07:32 | 59.35692 | 18.09974 | 5288 ft | 282 kts | 290° |
| 2026-05-06 07:32 | 59.36352 | 18.06327 | 4544 ft | 286 kts | 290° |
| 2026-05-06 07:32 | 59.36992 | 18.02778 | 4626 ft | 264 kts | 290° |
| 2026-05-06 07:32 | 59.37572 | 17.99551 | 4896 ft | 239 kts | 290° |
| 2026-05-06 07:33 | 59.38112 | 17.96560 | 4863 ft | 227 kts | 290° |
| 2026-05-06 07:33 | 59.38629 | 17.93714 | 4808 ft | 216 kts | 291° |
| 2026-05-06 07:33 | 59.39333 | 17.91208 | 4722 ft | 205 kts | 309° |
| 2026-05-06 07:33 | 59.40364 | 17.89378 | 4593 ft | 197 kts | 327° |
| 2026-05-06 07:34 | 59.41596 | 17.88306 | 4429 ft | 193 kts | 344° |
| 2026-05-06 07:34 | 59.42920 | 17.88037 | 4199 ft | 192 kts | 1° |
| 2026-05-06 07:34 | 59.44237 | 17.88445 | 3982 ft | 190 kts | 8° |
| 2026-05-06 07:34 | 59.45517 | 17.88905 | 3695 ft | 183 kts | 8° |
| 2026-05-06 07:35 | 59.46729 | 17.89342 | 3433 ft | 169 kts | 8° |
| 2026-05-06 07:35 | 59.47839 | 17.89741 | 3210 ft | 156 kts | 8° |
| 2026-05-06 07:35 | 59.48857 | 17.90107 | 3010 ft | 143 kts | 8° |
| 2026-05-06 07:35 | 59.49828 | 17.90455 | 2804 ft | 138 kts | 8° |
| 2026-05-06 07:36 | 59.50771 | 17.90793 | 2615 ft | 137 kts | 8° |
| 2026-05-06 07:36 | 59.51708 | 17.91129 | 2430 ft | 137 kts | 8° |
| 2026-05-06 07:36 | 59.52647 | 17.91466 | 2237 ft | 138 kts | 8° |
| 2026-05-06 07:36 | 59.53592 | 17.91806 | 2043 ft | 137 kts | 9° |
| 2026-05-06 07:37 | 59.54534 | 17.92146 | 1853 ft | 137 kts | 7° |
| 2026-05-06 07:37 | 59.55474 | 17.92485 | 1663 ft | 138 kts | 8° |
| 2026-05-06 07:37 | 59.56414 | 17.92824 | 1465 ft | 138 kts | 9° |
| 2026-05-06 07:37 | 59.57355 | 17.93163 | 1271 ft | 137 kts | 9° |
| 2026-05-06 07:38 | 59.58294 | 17.93502 | 1080 ft | 137 kts | 8° |
| 2026-05-06 07:38 | 59.59232 | 17.93841 | 875 ft | 136 kts | 9° |
| 2026-05-06 07:38 | 59.60163 | 17.94178 | 694 ft | 136 kts | 8° |
| 2026-05-06 07:38 | 59.61093 | 17.94514 | 510 ft | 135 kts | 9° |
| 2026-05-06 07:39 | 59.62019 | 17.94849 | 326 ft | 135 kts | 9° |
| 2026-05-06 07:39 | 59.62941 | 17.95183 | 155 ft | 132 kts | 9° |
| 2026-05-06 07:39 | 59.63714 | 17.95459 | 145 ft | 91 kts | 12° |
| 2026-05-06 07:39 | 59.63973 | 17.95562 | 143 ft | 12 kts | 6° |
| 2026-05-06 07:40 | 59.64079 | 17.95547 | 144 ft | 17 kts | 346° |
| 2026-05-06 07:40 | 59.64215 | 17.95464 | 139 ft | 23 kts | 339° |
| 2026-05-06 07:40 | 59.64236 | 17.95448 | 139 ft | 0 kts | 339° |
| 2026-05-06 07:40 | 59.64260 | 17.95430 | 138 ft | 12 kts | 339° |
| 2026-05-06 07:41 | 59.64377 | 17.95353 | 138 ft | 20 kts | 342° |
| 2026-05-06 07:41 | 59.64514 | 17.95354 | 138 ft | 21 kts | 14° |
| 2026-05-06 07:41 | 59.64669 | 17.95415 | 138 ft | 24 kts | 7° |
| 2026-05-06 07:41 | 59.64821 | 17.95442 | 138 ft | 12 kts | 356° |
| 2026-05-06 07:42 | 59.64865 | 17.95321 | 138 ft | 14 kts | 244° |
| 2026-05-06 07:42 | 59.64784 | 17.95204 | 138 ft | 16 kts | 231° |
| 2026-05-06 07:42 | 59.64729 | 17.95031 | 138 ft | 14 kts | 238° |
| 2026-05-06 07:42 | 59.64687 | 17.95020 | 138 ft | 8 kts | 151° |
| 2026-05-06 07:43 | 59.64656 | 17.95068 | 138 ft | 9 kts | 143° |
| 2026-05-06 07:43 | 59.64596 | 17.95150 | 138 ft | 11 kts | 149° |
| 2026-05-06 07:43 | 59.64519 | 17.95123 | 138 ft | 13 kts | 231° |
| 2026-05-06 07:43 | 59.64461 | 17.94956 | 138 ft | 17 kts | 237° |
| 2026-05-06 07:44 | 59.64389 | 17.94731 | 138 ft | 21 kts | 238° |
| 2026-05-06 07:44 | 59.64302 | 17.94457 | 138 ft | 25 kts | 238° |
| 2026-05-06 07:44 | 59.64205 | 17.94143 | 138 ft | 28 kts | 237° |
| 2026-05-06 07:44 | 59.64091 | 17.93800 | 138 ft | 31 kts | 237° |
| 2026-05-06 07:45 | 59.63987 | 17.93443 | 138 ft | 27 kts | 260° |
| 2026-05-06 07:45 | 59.64037 | 17.93125 | 138 ft | 25 kts | 297° |
| 2026-05-06 07:45 | 59.64121 | 17.92890 | 138 ft | 18 kts | 337° |
| 2026-05-06 07:45 | 59.64204 | 17.92992 | 138 ft | 14 kts | 63° |
| 2026-05-06 07:46 | 59.64238 | 17.93121 | 138 ft | 11 kts | 45° |
| 2026-05-06 07:46 | 59.64303 | 17.93065 | 138 ft | 12 kts | 302° |
| 2026-05-06 07:46 | 59.64309 | 17.93047 | 138 ft | 0 kts | 302° |